sensor_id;sensor_type;location;lat;lon;timestamp;temperature;humidity
26479;DHT22;14163;-26.142;27.992;2022-11-15T00:01:38;19.40;99.90
26479;DHT22;14163;-26.142;27.992;2022-11-15T00:04:08;19.40;99.90
26479;DHT22;14163;-26.142;27.992;2022-11-15T00:06:38;19.40;99.90
26479;DHT22;14163;-26.142;27.992;2022-11-15T00:09:09;19.40;99.90
26479;DHT22;14163;-26.142;27.992;2022-11-15T00:11:38;19.50;99.90
26479;DHT22;14163;-26.142;27.992;2022-11-15T00:14:07;19.50;99.90
26479;DHT22;14163;-26.142;27.992;2022-11-15T00:16:37;19.60;99.90
26479;DHT22;14163;-26.142;27.992;2022-11-15T00:19:06;19.50;99.90
26479;DHT22;14163;-26.142;27.992;2022-11-15T00:21:35;19.60;99.90
26479;DHT22;14163;-26.142;27.992;2022-11-15T00:24:05;19.70;99.90
26479;DHT22;14163;-26.142;27.992;2022-11-15T00:26:36;19.70;99.90
26479;DHT22;14163;-26.142;27.992;2022-11-15T00:29:05;19.80;99.90
26479;DHT22;14163;-26.142;27.992;2022-11-15T00:31:34;19.90;99.90
26479;DHT22;14163;-26.142;27.992;2022-11-15T00:34:03;19.90;99.90
26479;DHT22;14163;-26.142;27.992;2022-11-15T00:36:33;20.10;99.90
26479;DHT22;14163;-26.142;27.992;2022-11-15T00:39:04;20.00;99.90
26479;DHT22;14163;-26.142;27.992;2022-11-15T00:41:35;19.90;99.90
26479;DHT22;14163;-26.142;27.992;2022-11-15T00:44:05;19.80;99.90
26479;DHT22;14163;-26.142;27.992;2022-11-15T00:46:34;19.70;99.90
26479;DHT22;14163;-26.142;27.992;2022-11-15T00:49:03;19.70;99.90
26479;DHT22;14163;-26.142;27.992;2022-11-15T00:51:32;19.80;99.90
26479;DHT22;14163;-26.142;27.992;2022-11-15T00:54:01;19.60;99.90
26479;DHT22;14163;-26.142;27.992;2022-11-15T00:56:30;19.40;99.90
26479;DHT22;14163;-26.142;27.992;2022-11-15T00:59:01;19.40;99.90
26479;DHT22;14163;-26.142;27.992;2022-11-15T01:01:30;19.20;99.90
26479;DHT22;14163;-26.142;27.992;2022-11-15T01:03:59;19.20;99.90
26479;DHT22;14163;-26.142;27.992;2022-11-15T01:06:29;19.40;99.90
26479;DHT22;14163;-26.142;27.992;2022-11-15T01:08:58;19.30;99.90
26479;DHT22;14163;-26.142;27.992;2022-11-15T01:11:27;19.50;99.90
26479;DHT22;14163;-26.142;27.992;2022-11-15T01:13:56;19.40;99.90
26479;DHT22;14163;-26.142;27.992;2022-11-15T01:16:27;19.40;99.90
26479;DHT22;14163;-26.142;27.992;2022-11-15T01:18:56;19.40;99.90
26479;DHT22;14163;-26.142;27.992;2022-11-15T01:21:25;19.30;99.90
26479;DHT22;14163;-26.142;27.992;2022-11-15T01:23:55;19.40;99.90
26479;DHT22;14163;-26.142;27.992;2022-11-15T01:26:25;19.50;99.90
26479;DHT22;14163;-26.142;27.992;2022-11-15T01:28:54;19.40;99.90
26479;DHT22;14163;-26.142;27.992;2022-11-15T01:31:23;19.40;99.90
26479;DHT22;14163;-26.142;27.992;2022-11-15T01:33:54;19.40;99.90
26479;DHT22;14163;-26.142;27.992;2022-11-15T01:36:23;19.30;99.90
26479;DHT22;14163;-26.142;27.992;2022-11-15T01:38:54;19.00;99.90
26479;DHT22;14163;-26.142;27.992;2022-11-15T01:41:25;19.00;99.90
26479;DHT22;14163;-26.142;27.992;2022-11-15T01:43:56;18.90;99.90
26479;DHT22;14163;-26.142;27.992;2022-11-15T01:46:29;18.70;99.90
26479;DHT22;14163;-26.142;27.992;2022-11-15T01:49:03;18.40;99.90
26479;DHT22;14163;-26.142;27.992;2022-11-15T01:51:34;18.30;99.90
26479;DHT22;14163;-26.142;27.992;2022-11-15T01:54:06;18.20;99.90
26479;DHT22;14163;-26.142;27.992;2022-11-15T01:56:40;18.30;99.90
26479;DHT22;14163;-26.142;27.992;2022-11-15T01:59:13;18.60;99.90
26479;DHT22;14163;-26.142;27.992;2022-11-15T02:01:42;18.60;99.90
26479;DHT22;14163;-26.142;27.992;2022-11-15T04:13:26;14.40;99.90
26479;DHT22;14163;-26.142;27.992;2022-11-15T04:15:55;14.60;99.90
26479;DHT22;14163;-26.142;27.992;2022-11-15T04:18:24;15.10;99.90
26479;DHT22;14163;-26.142;27.992;2022-11-15T04:20:53;15.70;99.90
26479;DHT22;14163;-26.142;27.992;2022-11-15T04:23:39;16.10;99.90
26479;DHT22;14163;-26.142;27.992;2022-11-15T04:26:25;16.40;99.90
26479;DHT22;14163;-26.142;27.992;2022-11-15T04:28:56;16.80;99.90
26479;DHT22;14163;-26.142;27.992;2022-11-15T04:31:41;17.10;99.90
26479;DHT22;14163;-26.142;27.992;2022-11-15T04:34:11;17.10;99.90
26479;DHT22;14163;-26.142;27.992;2022-11-15T04:36:40;17.20;99.90
26479;DHT22;14163;-26.142;27.992;2022-11-15T04:39:25;17.40;99.90
26479;DHT22;14163;-26.142;27.992;2022-11-15T04:41:54;17.50;99.90
26479;DHT22;14163;-26.142;27.992;2022-11-15T04:44:25;17.60;99.90
26479;DHT22;14163;-26.142;27.992;2022-11-15T04:46:54;17.60;99.90
26479;DHT22;14163;-26.142;27.992;2022-11-15T04:49:23;17.60;99.90
26479;DHT22;14163;-26.142;27.992;2022-11-15T04:51:53;17.70;99.90
26479;DHT22;14163;-26.142;27.992;2022-11-15T04:54:22;17.70;99.90
26479;DHT22;14163;-26.142;27.992;2022-11-15T04:56:51;17.60;99.90
26479;DHT22;14163;-26.142;27.992;2022-11-15T04:59:20;17.50;99.90
26479;DHT22;14163;-26.142;27.992;2022-11-15T05:01:51;17.50;99.90
26479;DHT22;14163;-26.142;27.992;2022-11-15T05:04:20;17.70;99.90
26479;DHT22;14163;-26.142;27.992;2022-11-15T05:06:49;17.90;99.90
26479;DHT22;14163;-26.142;27.992;2022-11-15T05:09:19;18.00;99.90
26479;DHT22;14163;-26.142;27.992;2022-11-15T05:11:49;18.00;99.90
26479;DHT22;14163;-26.142;27.992;2022-11-15T05:14:18;18.10;99.90
26479;DHT22;14163;-26.142;27.992;2022-11-15T05:16:48;18.00;99.90
26479;DHT22;14163;-26.142;27.992;2022-11-15T05:19:18;17.90;99.90
26479;DHT22;14163;-26.142;27.992;2022-11-15T05:21:48;18.00;99.90
26479;DHT22;14163;-26.142;27.992;2022-11-15T05:24:17;18.00;99.90
26479;DHT22;14163;-26.142;27.992;2022-11-15T05:26:47;18.10;99.90
26479;DHT22;14163;-26.142;27.992;2022-11-15T05:29:16;18.00;99.90
26479;DHT22;14163;-26.142;27.992;2022-11-15T05:31:45;18.00;99.90
26479;DHT22;14163;-26.142;27.992;2022-11-15T05:34:14;18.00;99.90
26479;DHT22;14163;-26.142;27.992;2022-11-15T05:36:46;18.10;99.90
26479;DHT22;14163;-26.142;27.992;2022-11-15T05:39:15;18.10;99.90
26479;DHT22;14163;-26.142;27.992;2022-11-15T05:41:46;18.10;99.90
26479;DHT22;14163;-26.142;27.992;2022-11-15T05:44:19;18.00;99.90
26479;DHT22;14163;-26.142;27.992;2022-11-15T05:46:50;18.00;99.90
26479;DHT22;14163;-26.142;27.992;2022-11-15T05:49:24;18.00;99.90
26479;DHT22;14163;-26.142;27.992;2022-11-15T05:51:56;18.00;99.90
26479;DHT22;14163;-26.142;27.992;2022-11-15T05:54:25;18.10;99.90
26479;DHT22;14163;-26.142;27.992;2022-11-15T05:56:55;18.10;99.90
26479;DHT22;14163;-26.142;27.992;2022-11-15T05:59:24;18.10;99.90
26479;DHT22;14163;-26.142;27.992;2022-11-15T06:01:53;18.10;99.90
26479;DHT22;14163;-26.142;27.992;2022-11-15T06:04:23;18.10;99.90
26479;DHT22;14163;-26.142;27.992;2022-11-15T06:06:52;18.20;99.90
26479;DHT22;14163;-26.142;27.992;2022-11-15T06:09:23;18.40;99.90
26479;DHT22;14163;-26.142;27.992;2022-11-15T06:11:52;18.60;99.90
26479;DHT22;14163;-26.142;27.992;2022-11-15T06:14:21;18.70;99.90
26479;DHT22;14163;-26.142;27.992;2022-11-15T06:16:50;18.90;99.90
26479;DHT22;14163;-26.142;27.992;2022-11-15T06:19:19;19.10;99.90
26479;DHT22;14163;-26.142;27.992;2022-11-15T06:21:48;19.20;99.90
26479;DHT22;14163;-26.142;27.992;2022-11-15T06:24:18;19.00;99.90
26479;DHT22;14163;-26.142;27.992;2022-11-15T06:26:49;18.80;99.90
26479;DHT22;14163;-26.142;27.992;2022-11-15T06:29:18;18.70;99.90
26479;DHT22;14163;-26.142;27.992;2022-11-15T06:31:47;18.70;99.90
26479;DHT22;14163;-26.142;27.992;2022-11-15T06:34:16;18.90;99.90
26479;DHT22;14163;-26.142;27.992;2022-11-15T06:36:46;18.80;99.90
26479;DHT22;14163;-26.142;27.992;2022-11-15T06:39:15;19.10;99.90
26479;DHT22;14163;-26.142;27.992;2022-11-15T06:41:44;19.20;99.90
26479;DHT22;14163;-26.142;27.992;2022-11-15T06:44:15;19.20;99.90
26479;DHT22;14163;-26.142;27.992;2022-11-15T06:46:44;19.20;99.90
26479;DHT22;14163;-26.142;27.992;2022-11-15T06:49:14;19.30;99.90
26479;DHT22;14163;-26.142;27.992;2022-11-15T06:51:43;19.60;99.90
26479;DHT22;14163;-26.142;27.992;2022-11-15T06:54:12;19.60;99.90
26479;DHT22;14163;-26.142;27.992;2022-11-15T06:56:41;19.40;99.90
26479;DHT22;14163;-26.142;27.992;2022-11-15T06:59:11;19.40;99.90
26479;DHT22;14163;-26.142;27.992;2022-11-15T07:01:41;19.30;99.90
26479;DHT22;14163;-26.142;27.992;2022-11-15T07:04:11;19.20;99.90
26479;DHT22;14163;-26.142;27.992;2022-11-15T07:06:40;19.30;99.90
26479;DHT22;14163;-26.142;27.992;2022-11-15T07:09:09;19.40;99.90
26479;DHT22;14163;-26.142;27.992;2022-11-15T07:11:38;19.30;99.90
26479;DHT22;14163;-26.142;27.992;2022-11-15T07:14:08;19.50;99.90
26479;DHT22;14163;-26.142;27.992;2022-11-15T07:16:37;19.40;99.90
26479;DHT22;14163;-26.142;27.992;2022-11-15T07:19:09;19.40;99.90
26479;DHT22;14163;-26.142;27.992;2022-11-15T07:21:38;19.70;99.90
26479;DHT22;14163;-26.142;27.992;2022-11-15T07:24:07;19.80;99.90
26479;DHT22;14163;-26.142;27.992;2022-11-15T07:26:37;19.90;99.90
26479;DHT22;14163;-26.142;27.992;2022-11-15T07:29:06;19.90;99.90
26479;DHT22;14163;-26.142;27.992;2022-11-15T07:31:35;19.70;99.90
26479;DHT22;14163;-26.142;27.992;2022-11-15T07:34:04;20.00;99.90
26479;DHT22;14163;-26.142;27.992;2022-11-15T07:36:35;20.20;99.90
26479;DHT22;14163;-26.142;27.992;2022-11-15T07:39:05;20.30;99.90
26479;DHT22;14163;-26.142;27.992;2022-11-15T07:41:34;20.60;99.90
26479;DHT22;14163;-26.142;27.992;2022-11-15T07:44:03;20.70;99.90
26479;DHT22;14163;-26.142;27.992;2022-11-15T07:46:32;20.80;99.90
26479;DHT22;14163;-26.142;27.992;2022-11-15T07:49:02;20.70;99.90
26479;DHT22;14163;-26.142;27.992;2022-11-15T07:51:31;20.80;99.90
26479;DHT22;14163;-26.142;27.992;2022-11-15T07:54:02;21.00;99.90
26479;DHT22;14163;-26.142;27.992;2022-11-15T07:56:31;21.00;99.90
26479;DHT22;14163;-26.142;27.992;2022-11-15T07:59:00;21.10;99.90
26479;DHT22;14163;-26.142;27.992;2022-11-15T08:01:29;21.00;99.90
26479;DHT22;14163;-26.142;27.992;2022-11-15T08:04:00;21.00;99.90
26479;DHT22;14163;-26.142;27.992;2022-11-15T08:06:29;20.90;99.90
26479;DHT22;14163;-26.142;27.992;2022-11-15T08:09:00;20.80;99.90
26479;DHT22;14163;-26.142;27.992;2022-11-15T08:11:30;20.60;99.90
26479;DHT22;14163;-26.142;27.992;2022-11-15T08:13:59;20.50;99.90
26479;DHT22;14163;-26.142;27.992;2022-11-15T08:16:28;20.60;99.90
26479;DHT22;14163;-26.142;27.992;2022-11-15T08:18:58;20.80;99.90
26479;DHT22;14163;-26.142;27.992;2022-11-15T08:21:27;21.10;99.90
26479;DHT22;14163;-26.142;27.992;2022-11-15T08:23:56;21.10;99.90
26479;DHT22;14163;-26.142;27.992;2022-11-15T08:26:27;21.00;99.90
26479;DHT22;14163;-26.142;27.992;2022-11-15T08:28:58;21.20;99.90
26479;DHT22;14163;-26.142;27.992;2022-11-15T08:31:27;21.20;99.90
26479;DHT22;14163;-26.142;27.992;2022-11-15T08:33:56;21.10;99.90
26479;DHT22;14163;-26.142;27.992;2022-11-15T08:36:25;21.20;99.90
26479;DHT22;14163;-26.142;27.992;2022-11-15T08:38:54;21.40;99.90
26479;DHT22;14163;-26.142;27.992;2022-11-15T08:41:32;21.30;99.90
26479;DHT22;14163;-26.142;27.992;2022-11-15T08:44:02;21.20;99.90
26479;DHT22;14163;-26.142;27.992;2022-11-15T08:46:31;21.30;99.90
26479;DHT22;14163;-26.142;27.992;2022-11-15T08:49:00;21.40;99.90
26479;DHT22;14163;-26.142;27.992;2022-11-15T08:51:29;21.80;99.90
26479;DHT22;14163;-26.142;27.992;2022-11-15T08:53:58;22.10;99.90
26479;DHT22;14163;-26.142;27.992;2022-11-15T08:56:29;21.90;99.90
26479;DHT22;14163;-26.142;27.992;2022-11-15T08:58:58;21.70;99.90
26479;DHT22;14163;-26.142;27.992;2022-11-15T09:01:28;21.70;99.90
26479;DHT22;14163;-26.142;27.992;2022-11-15T09:03:57;21.90;99.90
26479;DHT22;14163;-26.142;27.992;2022-11-15T09:06:26;21.80;99.90
26479;DHT22;14163;-26.142;27.992;2022-11-15T09:08:55;22.00;99.90
26479;DHT22;14163;-26.142;27.992;2022-11-15T09:11:24;22.20;99.90
26479;DHT22;14163;-26.142;27.992;2022-11-15T09:13:55;21.90;99.90
26479;DHT22;14163;-26.142;27.992;2022-11-15T09:16:25;21.80;99.90
26479;DHT22;14163;-26.142;27.992;2022-11-15T09:18:56;22.00;99.90
26479;DHT22;14163;-26.142;27.992;2022-11-15T09:21:26;22.30;99.90
26479;DHT22;14163;-26.142;27.992;2022-11-15T09:23:55;22.40;99.90
26479;DHT22;14163;-26.142;27.992;2022-11-15T09:26:25;22.30;99.90
26479;DHT22;14163;-26.142;27.992;2022-11-15T09:28:56;22.50;99.90
26479;DHT22;14163;-26.142;27.992;2022-11-15T09:31:25;22.60;99.90
26479;DHT22;14163;-26.142;27.992;2022-11-15T09:33:54;22.20;99.90
26479;DHT22;14163;-26.142;27.992;2022-11-15T09:36:24;22.30;99.90
26479;DHT22;14163;-26.142;27.992;2022-11-15T09:38:53;22.30;99.90
26479;DHT22;14163;-26.142;27.992;2022-11-15T09:41:48;22.20;99.90
26479;DHT22;14163;-26.142;27.992;2022-11-15T09:44:50;21.90;99.90
26479;DHT22;14163;-26.142;27.992;2022-11-15T09:47:48;22.10;99.90
26479;DHT22;14163;-26.142;27.992;2022-11-15T09:50:28;22.30;99.90
26479;DHT22;14163;-26.142;27.992;2022-11-15T09:52:59;22.60;99.90
26479;DHT22;14163;-26.142;27.992;2022-11-15T09:55:36;22.90;99.90
26479;DHT22;14163;-26.142;27.992;2022-11-15T09:58:18;22.90;99.90
26479;DHT22;14163;-26.142;27.992;2022-11-15T10:00:52;23.00;99.90
26479;DHT22;14163;-26.142;27.992;2022-11-15T10:03:27;23.20;99.90
26479;DHT22;14163;-26.142;27.992;2022-11-15T12:15:02;23.50;99.90
26479;DHT22;14163;-26.142;27.992;2022-11-15T12:17:32;23.60;99.90
26479;DHT22;14163;-26.142;27.992;2022-11-15T12:20:04;24.40;99.90
26479;DHT22;14163;-26.142;27.992;2022-11-15T12:22:41;25.20;99.90
26479;DHT22;14163;-26.142;27.992;2022-11-15T12:25:18;26.10;99.90
26479;DHT22;14163;-26.142;27.992;2022-11-15T12:27:52;27.10;99.90
26479;DHT22;14163;-26.142;27.992;2022-11-15T12:30:25;27.50;99.90
26479;DHT22;14163;-26.142;27.992;2022-11-15T12:32:58;27.60;99.90
26479;DHT22;14163;-26.142;27.992;2022-11-15T12:35:35;28.00;99.90
26479;DHT22;14163;-26.142;27.992;2022-11-15T12:38:10;28.20;99.90
26479;DHT22;14163;-26.142;27.992;2022-11-15T12:43:46;28.00;99.90
26479;DHT22;14163;-26.142;27.992;2022-11-15T12:46:58;27.60;99.90
26479;DHT22;14163;-26.142;27.992;2022-11-15T12:49:44;27.50;99.90
26479;DHT22;14163;-26.142;27.992;2022-11-15T12:52:17;27.40;99.90
26479;DHT22;14163;-26.142;27.992;2022-11-15T12:55:08;27.80;99.90
26479;DHT22;14163;-26.142;27.992;2022-11-15T12:57:52;27.70;99.90
26479;DHT22;14163;-26.142;27.992;2022-11-15T13:00:45;27.80;99.90
26479;DHT22;14163;-26.142;27.992;2022-11-15T13:03:27;27.80;99.90
26479;DHT22;14163;-26.142;27.992;2022-11-15T13:06:03;27.80;99.90
26479;DHT22;14163;-26.142;27.992;2022-11-15T13:08:48;27.70;99.90
26479;DHT22;14163;-26.142;27.992;2022-11-15T13:11:46;27.70;99.90
26479;DHT22;14163;-26.142;27.992;2022-11-15T13:14:49;27.80;99.90
26479;DHT22;14163;-26.142;27.992;2022-11-15T13:17:30;27.40;99.90
26479;DHT22;14163;-26.142;27.992;2022-11-15T13:20:18;27.60;99.90
26479;DHT22;14163;-26.142;27.992;2022-11-15T13:22:48;27.50;99.90
26479;DHT22;14163;-26.142;27.992;2022-11-15T13:28:21;27.60;99.90
26479;DHT22;14163;-26.142;27.992;2022-11-15T13:30:52;27.50;99.90
26479;DHT22;14163;-26.142;27.992;2022-11-15T13:33:24;27.40;99.90
26479;DHT22;14163;-26.142;27.992;2022-11-15T13:35:58;27.30;99.90
26479;DHT22;14163;-26.142;27.992;2022-11-15T13:38:30;27.40;99.90
26479;DHT22;14163;-26.142;27.992;2022-11-15T13:41:10;27.30;99.90
26479;DHT22;14163;-26.142;27.992;2022-11-15T13:43:40;27.30;99.90
26479;DHT22;14163;-26.142;27.992;2022-11-15T13:46:15;27.20;99.90
26479;DHT22;14163;-26.142;27.992;2022-11-15T13:48:46;27.40;99.90
26479;DHT22;14163;-26.142;27.992;2022-11-15T13:51:20;27.70;99.90
26479;DHT22;14163;-26.142;27.992;2022-11-15T13:53:54;27.90;99.90
26479;DHT22;14163;-26.142;27.992;2022-11-15T13:56:24;27.90;99.90
26479;DHT22;14163;-26.142;27.992;2022-11-15T13:58:54;28.10;99.90
26479;DHT22;14163;-26.142;27.992;2022-11-15T14:01:24;28.10;99.90
26479;DHT22;14163;-26.142;27.992;2022-11-15T14:03:57;28.30;99.90
26479;DHT22;14163;-26.142;27.992;2022-11-15T14:06:29;28.20;99.90
26479;DHT22;14163;-26.142;27.992;2022-11-15T14:09:29;28.10;99.90
26479;DHT22;14163;-26.142;27.992;2022-11-15T14:12:00;27.90;99.90
26479;DHT22;14163;-26.142;27.992;2022-11-15T14:14:30;28.00;99.90
26479;DHT22;14163;-26.142;27.992;2022-11-15T14:17:00;28.00;99.90
26479;DHT22;14163;-26.142;27.992;2022-11-15T14:19:38;28.10;99.90
26479;DHT22;14163;-26.142;27.992;2022-11-15T14:22:20;28.10;99.90
26479;DHT22;14163;-26.142;27.992;2022-11-15T14:25:12;28.00;99.90
26479;DHT22;14163;-26.142;27.992;2022-11-15T14:27:42;28.00;99.90
26479;DHT22;14163;-26.142;27.992;2022-11-15T14:30:16;28.00;99.90
26479;DHT22;14163;-26.142;27.992;2022-11-15T14:32:46;27.80;99.90
26479;DHT22;14163;-26.142;27.992;2022-11-15T14:35:18;27.70;99.90
26479;DHT22;14163;-26.142;27.992;2022-11-15T14:37:49;27.70;99.90
26479;DHT22;14163;-26.142;27.992;2022-11-15T14:40:19;27.50;99.90
26479;DHT22;14163;-26.142;27.992;2022-11-15T14:42:50;27.60;99.90
26479;DHT22;14163;-26.142;27.992;2022-11-15T14:45:21;27.60;99.90
26479;DHT22;14163;-26.142;27.992;2022-11-15T14:47:50;27.80;99.90
26479;DHT22;14163;-26.142;27.992;2022-11-15T14:50:20;27.60;99.90
26479;DHT22;14163;-26.142;27.992;2022-11-15T14:52:51;27.60;99.90
26479;DHT22;14163;-26.142;27.992;2022-11-15T14:55:22;27.70;99.90
26479;DHT22;14163;-26.142;27.992;2022-11-15T14:57:52;27.60;99.90
26479;DHT22;14163;-26.142;27.992;2022-11-15T15:00:21;27.70;99.90
26479;DHT22;14163;-26.142;27.992;2022-11-15T15:02:53;27.40;99.90
26479;DHT22;14163;-26.142;27.992;2022-11-15T15:05:24;27.40;99.90
26479;DHT22;14163;-26.142;27.992;2022-11-15T15:07:55;27.30;99.90
26479;DHT22;14163;-26.142;27.992;2022-11-15T15:10:25;27.30;99.90
26479;DHT22;14163;-26.142;27.992;2022-11-15T15:12:56;27.20;99.90
26479;DHT22;14163;-26.142;27.992;2022-11-15T15:15:26;27.10;99.90
26479;DHT22;14163;-26.142;27.992;2022-11-15T15:17:56;27.10;99.90
26479;DHT22;14163;-26.142;27.992;2022-11-15T15:20:25;27.20;99.90
26479;DHT22;14163;-26.142;27.992;2022-11-15T15:22:56;27.30;99.90
26479;DHT22;14163;-26.142;27.992;2022-11-15T15:25:28;27.20;99.90
26479;DHT22;14163;-26.142;27.992;2022-11-15T15:27:57;27.30;99.90
26479;DHT22;14163;-26.142;27.992;2022-11-15T15:30:28;27.30;99.90
26479;DHT22;14163;-26.142;27.992;2022-11-15T15:32:57;27.30;99.90
26479;DHT22;14163;-26.142;27.992;2022-11-15T15:35:31;27.20;99.90
26479;DHT22;14163;-26.142;27.992;2022-11-15T15:38:03;26.90;99.90
26479;DHT22;14163;-26.142;27.992;2022-11-15T15:40:33;26.70;99.90
26479;DHT22;14163;-26.142;27.992;2022-11-15T15:43:02;26.60;99.90
26479;DHT22;14163;-26.142;27.992;2022-11-15T15:45:33;26.90;99.90
26479;DHT22;14163;-26.142;27.992;2022-11-15T15:48:02;26.90;99.90
26479;DHT22;14163;-26.142;27.992;2022-11-15T15:50:33;26.80;99.90
26479;DHT22;14163;-26.142;27.992;2022-11-15T15:53:05;26.80;99.90
26479;DHT22;14163;-26.142;27.992;2022-11-15T15:55:34;26.50;99.90
26479;DHT22;14163;-26.142;27.992;2022-11-15T15:58:04;26.30;99.90
26479;DHT22;14163;-26.142;27.992;2022-11-15T16:00:33;26.30;99.90
26479;DHT22;14163;-26.142;27.992;2022-11-15T16:03:02;26.20;99.90
26479;DHT22;14163;-26.142;27.992;2022-11-15T16:05:32;26.20;99.90
26479;DHT22;14163;-26.142;27.992;2022-11-15T16:08:01;26.20;99.90
26479;DHT22;14163;-26.142;27.992;2022-11-15T16:10:33;26.10;99.90
26479;DHT22;14163;-26.142;27.992;2022-11-15T16:13:03;26.00;99.90
26479;DHT22;14163;-26.142;27.992;2022-11-15T16:15:32;26.20;99.90
26479;DHT22;14163;-26.142;27.992;2022-11-15T16:18:03;26.30;99.90
26479;DHT22;14163;-26.142;27.992;2022-11-15T16:20:38;26.40;99.90
26479;DHT22;14163;-26.142;27.992;2022-11-15T16:23:10;26.40;99.90
26479;DHT22;14163;-26.142;27.992;2022-11-15T16:25:44;26.50;99.90
26479;DHT22;14163;-26.142;27.992;2022-11-15T16:28:19;26.40;99.90
26479;DHT22;14163;-26.142;27.992;2022-11-15T16:30:49;26.20;99.90
26479;DHT22;14163;-26.142;27.992;2022-11-15T16:33:18;26.20;99.90
26479;DHT22;14163;-26.142;27.992;2022-11-15T16:35:47;26.20;99.90
26479;DHT22;14163;-26.142;27.992;2022-11-15T16:38:18;26.30;99.90
26479;DHT22;14163;-26.142;27.992;2022-11-15T16:40:49;26.20;99.90
26479;DHT22;14163;-26.142;27.992;2022-11-15T16:43:18;26.10;99.90
26479;DHT22;14163;-26.142;27.992;2022-11-15T16:45:47;26.20;99.90
26479;DHT22;14163;-26.142;27.992;2022-11-15T16:48:23;26.20;99.90
26479;DHT22;14163;-26.142;27.992;2022-11-15T16:50:55;26.20;99.90
26479;DHT22;14163;-26.142;27.992;2022-11-15T16:53:25;26.10;99.90
26479;DHT22;14163;-26.142;27.992;2022-11-15T16:55:57;26.00;99.90
26479;DHT22;14163;-26.142;27.992;2022-11-15T16:58:26;25.80;99.90
26479;DHT22;14163;-26.142;27.992;2022-11-15T17:00:56;25.90;99.90
26479;DHT22;14163;-26.142;27.992;2022-11-15T17:03:25;26.00;99.90
26479;DHT22;14163;-26.142;27.992;2022-11-15T17:05:57;25.90;99.90
26479;DHT22;14163;-26.142;27.992;2022-11-15T17:08:27;25.80;99.90
26479;DHT22;14163;-26.142;27.992;2022-11-15T17:10:58;25.80;99.90
26479;DHT22;14163;-26.142;27.992;2022-11-15T17:13:27;25.70;99.90
26479;DHT22;14163;-26.142;27.992;2022-11-15T17:16:04;25.70;99.90
26479;DHT22;14163;-26.142;27.992;2022-11-15T17:18:34;25.70;99.90
26479;DHT22;14163;-26.142;27.992;2022-11-15T17:21:05;25.70;99.90
26479;DHT22;14163;-26.142;27.992;2022-11-15T17:23:34;25.70;99.90
26479;DHT22;14163;-26.142;27.992;2022-11-15T17:26:06;26.50;99.90
26479;DHT22;14163;-26.142;27.992;2022-11-15T17:28:37;25.70;99.90
26479;DHT22;14163;-26.142;27.992;2022-11-15T17:31:10;25.70;99.90
26479;DHT22;14163;-26.142;27.992;2022-11-15T17:33:40;25.70;99.90
26479;DHT22;14163;-26.142;27.992;2022-11-15T17:36:10;25.60;99.90
26479;DHT22;14163;-26.142;27.992;2022-11-15T17:38:41;25.60;99.90
26479;DHT22;14163;-26.142;27.992;2022-11-15T17:41:17;25.60;99.90
26479;DHT22;14163;-26.142;27.992;2022-11-15T17:43:47;25.50;99.90
26479;DHT22;14163;-26.142;27.992;2022-11-15T17:46:18;25.50;99.90
26479;DHT22;14163;-26.142;27.992;2022-11-15T17:48:48;25.40;99.90
26479;DHT22;14163;-26.142;27.992;2022-11-15T17:51:19;25.50;99.90
26479;DHT22;14163;-26.142;27.992;2022-11-15T17:53:49;25.50;99.90
26479;DHT22;14163;-26.142;27.992;2022-11-15T17:56:24;25.50;99.90
26479;DHT22;14163;-26.142;27.992;2022-11-15T17:58:57;25.50;99.90
26479;DHT22;14163;-26.142;27.992;2022-11-15T18:01:28;25.50;99.90
26479;DHT22;14163;-26.142;27.992;2022-11-15T18:03:58;25.40;99.90
26479;DHT22;14163;-26.142;27.992;2022-11-15T18:06:29;25.40;99.90
26479;DHT22;14163;-26.142;27.992;2022-11-15T18:08:59;25.20;99.90
26479;DHT22;14163;-26.142;27.992;2022-11-15T18:11:31;25.20;99.90
26479;DHT22;14163;-26.142;27.992;2022-11-15T18:14:02;25.20;99.90
26479;DHT22;14163;-26.142;27.992;2022-11-15T18:16:35;25.10;99.90
26479;DHT22;14163;-26.142;27.992;2022-11-15T18:19:06;25.10;99.90
26479;DHT22;14163;-26.142;27.992;2022-11-15T18:21:40;25.10;99.90
26479;DHT22;14163;-26.142;27.992;2022-11-15T18:24:26;25.10;99.90
26479;DHT22;14163;-26.142;27.992;2022-11-15T18:26:58;25.10;99.90
26479;DHT22;14163;-26.142;27.992;2022-11-15T18:29:28;25.00;99.90
26479;DHT22;14163;-26.142;27.992;2022-11-15T18:31:58;25.00;99.90
26479;DHT22;14163;-26.142;27.992;2022-11-15T18:34:30;24.90;99.90
26479;DHT22;14163;-26.142;27.992;2022-11-15T18:37:00;24.80;99.90
26479;DHT22;14163;-26.142;27.992;2022-11-15T18:39:29;25.00;99.90
26479;DHT22;14163;-26.142;27.992;2022-11-15T18:42:00;25.10;99.90
26479;DHT22;14163;-26.142;27.992;2022-11-15T18:44:30;25.10;99.90
26479;DHT22;14163;-26.142;27.992;2022-11-15T18:47:00;25.10;99.90
26479;DHT22;14163;-26.142;27.992;2022-11-15T18:49:29;24.90;99.90
26479;DHT22;14163;-26.142;27.992;2022-11-15T18:51:58;24.90;99.90
26479;DHT22;14163;-26.142;27.992;2022-11-15T18:54:27;25.00;99.90
26479;DHT22;14163;-26.142;27.992;2022-11-15T18:56:57;25.00;99.90
26479;DHT22;14163;-26.142;27.992;2022-11-15T18:59:28;25.10;99.90
26479;DHT22;14163;-26.142;27.992;2022-11-15T19:01:57;25.00;99.90
26479;DHT22;14163;-26.142;27.992;2022-11-15T19:04:27;25.10;99.90
26479;DHT22;14163;-26.142;27.992;2022-11-15T19:06:56;25.10;99.90
26479;DHT22;14163;-26.142;27.992;2022-11-15T19:09:25;25.00;99.90
26479;DHT22;14163;-26.142;27.992;2022-11-15T19:11:58;25.00;99.90
26479;DHT22;14163;-26.142;27.992;2022-11-15T19:14:31;25.10;99.90
26479;DHT22;14163;-26.142;27.992;2022-11-15T19:17:01;24.90;99.90
26479;DHT22;14163;-26.142;27.992;2022-11-15T19:19:30;24.80;99.90
26479;DHT22;14163;-26.142;27.992;2022-11-15T19:22:00;24.80;99.90
26479;DHT22;14163;-26.142;27.992;2022-11-15T19:24:29;24.70;99.90
26479;DHT22;14163;-26.142;27.992;2022-11-15T19:26:58;24.70;99.90
26479;DHT22;14163;-26.142;27.992;2022-11-15T19:29:28;24.70;99.90
26479;DHT22;14163;-26.142;27.992;2022-11-15T19:31:58;24.80;99.90
26479;DHT22;14163;-26.142;27.992;2022-11-15T19:34:29;24.80;99.90
26479;DHT22;14163;-26.142;27.992;2022-11-15T19:36:58;24.70;99.90
26479;DHT22;14163;-26.142;27.992;2022-11-15T19:39:29;24.70;99.90
26479;DHT22;14163;-26.142;27.992;2022-11-15T19:42:03;24.70;99.90
26479;DHT22;14163;-26.142;27.992;2022-11-15T19:44:32;24.80;99.90
26479;DHT22;14163;-26.142;27.992;2022-11-15T19:47:02;24.80;99.90
26479;DHT22;14163;-26.142;27.992;2022-11-15T19:49:32;24.80;99.90
26479;DHT22;14163;-26.142;27.992;2022-11-15T19:52:01;24.80;99.90
26479;DHT22;14163;-26.142;27.992;2022-11-15T19:54:30;24.80;99.90